sensor_id;sensor_type;location;lat;lon;timestamp;P1;durP1;ratioP1;P2;durP2;ratioP2
50225;SDS011;36113;50.742;6.432;2023-08-07T00:02:00;11.57;;;3.53;;
50225;SDS011;36113;50.742;6.432;2023-08-07T00:04:26;7.38;;;2.97;;
50225;SDS011;36113;50.742;6.432;2023-08-07T00:06:51;7.50;;;2.90;;
50225;SDS011;36113;50.742;6.432;2023-08-07T00:09:17;12.02;;;3.35;;
50225;SDS011;36113;50.742;6.432;2023-08-07T00:11:42;10.05;;;3.55;;
50225;SDS011;36113;50.742;6.432;2023-08-07T00:14:07;13.73;;;3.45;;
50225;SDS011;36113;50.742;6.432;2023-08-07T00:16:32;12.27;;;3.38;;
50225;SDS011;36113;50.742;6.432;2023-08-07T00:18:58;11.25;;;3.28;;
50225;SDS011;36113;50.742;6.432;2023-08-07T00:21:23;12.63;;;3.67;;
50225;SDS011;36113;50.742;6.432;2023-08-07T00:23:49;13.57;;;3.10;;
50225;SDS011;36113;50.742;6.432;2023-08-07T00:26:15;11.57;;;3.45;;
50225;SDS011;36113;50.742;6.432;2023-08-07T00:28:40;9.23;;;2.75;;
50225;SDS011;36113;50.742;6.432;2023-08-07T00:31:05;7.13;;;3.53;;
50225;SDS011;36113;50.742;6.432;2023-08-07T00:33:31;14.00;;;3.42;;
50225;SDS011;36113;50.742;6.432;2023-08-07T00:35:56;6.38;;;3.67;;
50225;SDS011;36113;50.742;6.432;2023-08-07T00:38:21;10.15;;;3.35;;
50225;SDS011;36113;50.742;6.432;2023-08-07T00:40:47;12.70;;;3.38;;
50225;SDS011;36113;50.742;6.432;2023-08-07T00:43:12;12.40;;;3.83;;
50225;SDS011;36113;50.742;6.432;2023-08-07T00:45:40;11.38;;;3.35;;
50225;SDS011;36113;50.742;6.432;2023-08-07T00:48:07;8.57;;;2.90;;
50225;SDS011;36113;50.742;6.432;2023-08-07T00:50:33;9.43;;;3.20;;
50225;SDS011;36113;50.742;6.432;2023-08-07T00:52:58;10.35;;;3.85;;
50225;SDS011;36113;50.742;6.432;2023-08-07T00:55:24;8.23;;;3.13;;
50225;SDS011;36113;50.742;6.432;2023-08-07T00:57:50;6.27;;;2.73;;
50225;SDS011;36113;50.742;6.432;2023-08-07T01:00:16;8.98;;;2.90;;
50225;SDS011;36113;50.742;6.432;2023-08-07T01:02:42;8.70;;;2.53;;
50225;SDS011;36113;50.742;6.432;2023-08-07T01:05:07;13.23;;;3.60;;
50225;SDS011;36113;50.742;6.432;2023-08-07T01:07:33;7.57;;;3.58;;
50225;SDS011;36113;50.742;6.432;2023-08-07T01:09:58;10.05;;;3.40;;
50225;SDS011;36113;50.742;6.432;2023-08-07T01:12:30;15.90;;;3.22;;
50225;SDS011;36113;50.742;6.432;2023-08-07T01:15:03;11.05;;;3.60;;
50225;SDS011;36113;50.742;6.432;2023-08-07T01:17:37;10.00;;;3.15;;
50225;SDS011;36113;50.742;6.432;2023-08-07T01:20:04;8.73;;;3.28;;
50225;SDS011;36113;50.742;6.432;2023-08-07T01:22:30;6.65;;;3.13;;
50225;SDS011;36113;50.742;6.432;2023-08-07T01:24:55;13.23;;;4.10;;
50225;SDS011;36113;50.742;6.432;2023-08-07T01:27:42;11.60;;;3.72;;
50225;SDS011;36113;50.742;6.432;2023-08-07T01:30:19;9.60;;;4.75;;
50225;SDS011;36113;50.742;6.432;2023-08-07T01:35:36;18.55;;;3.97;;
50225;SDS011;36113;50.742;6.432;2023-08-07T01:38:06;11.85;;;4.20;;
50225;SDS011;36113;50.742;6.432;2023-08-07T01:40:32;7.85;;;3.08;;
50225;SDS011;36113;50.742;6.432;2023-08-07T01:45:26;11.68;;;3.88;;
50225;SDS011;36113;50.742;6.432;2023-08-07T01:47:53;7.07;;;3.40;;
50225;SDS011;36113;50.742;6.432;2023-08-07T01:50:19;11.77;;;3.22;;
50225;SDS011;36113;50.742;6.432;2023-08-07T01:52:45;12.35;;;3.92;;
50225;SDS011;36113;50.742;6.432;2023-08-07T01:55:11;14.30;;;3.35;;
50225;SDS011;36113;50.742;6.432;2023-08-07T01:57:38;9.07;;;3.33;;
50225;SDS011;36113;50.742;6.432;2023-08-07T02:00:03;10.13;;;3.58;;
50225;SDS011;36113;50.742;6.432;2023-08-07T02:02:29;9.45;;;2.92;;
50225;SDS011;36113;50.742;6.432;2023-08-07T02:04:54;7.82;;;3.17;;
50225;SDS011;36113;50.742;6.432;2023-08-07T02:07:19;5.55;;;3.10;;
50225;SDS011;36113;50.742;6.432;2023-08-07T02:09:45;6.03;;;2.78;;
50225;SDS011;36113;50.742;6.432;2023-08-07T02:12:10;8.77;;;3.65;;
50225;SDS011;36113;50.742;6.432;2023-08-07T02:14:35;7.70;;;2.63;;
50225;SDS011;36113;50.742;6.432;2023-08-07T02:17:00;8.75;;;3.03;;
50225;SDS011;36113;50.742;6.432;2023-08-07T02:19:26;5.97;;;2.78;;
50225;SDS011;36113;50.742;6.432;2023-08-07T02:21:51;4.40;;;2.92;;
50225;SDS011;36113;50.742;6.432;2023-08-07T02:24:16;6.55;;;2.83;;
50225;SDS011;36113;50.742;6.432;2023-08-07T02:26:43;11.70;;;3.20;;
50225;SDS011;36113;50.742;6.432;2023-08-07T02:29:09;9.65;;;2.40;;
50225;SDS011;36113;50.742;6.432;2023-08-07T02:31:34;6.85;;;2.88;;
50225;SDS011;36113;50.742;6.432;2023-08-07T02:33:59;12.32;;;3.50;;
50225;SDS011;36113;50.742;6.432;2023-08-07T02:36:25;11.13;;;3.03;;
50225;SDS011;36113;50.742;6.432;2023-08-07T02:38:50;9.70;;;2.80;;
50225;SDS011;36113;50.742;6.432;2023-08-07T02:41:15;6.53;;;3.13;;
50225;SDS011;36113;50.742;6.432;2023-08-07T02:43:41;7.90;;;2.70;;
50225;SDS011;36113;50.742;6.432;2023-08-07T02:46:06;11.05;;;3.25;;
50225;SDS011;36113;50.742;6.432;2023-08-07T02:48:31;7.85;;;2.83;;
50225;SDS011;36113;50.742;6.432;2023-08-07T02:50:56;8.57;;;2.78;;
50225;SDS011;36113;50.742;6.432;2023-08-07T02:53:22;9.55;;;4.20;;
50225;SDS011;36113;50.742;6.432;2023-08-07T02:55:47;10.32;;;3.00;;
50225;SDS011;36113;50.742;6.432;2023-08-07T02:58:12;11.18;;;3.75;;
50225;SDS011;36113;50.742;6.432;2023-08-07T03:00:38;8.38;;;3.33;;
50225;SDS011;36113;50.742;6.432;2023-08-07T03:03:03;4.80;;;2.95;;
50225;SDS011;36113;50.742;6.432;2023-08-07T03:05:28;6.57;;;2.72;;
50225;SDS011;36113;50.742;6.432;2023-08-07T03:07:54;7.93;;;2.63;;
50225;SDS011;36113;50.742;6.432;2023-08-07T03:10:19;8.32;;;3.40;;
50225;SDS011;36113;50.742;6.432;2023-08-07T03:12:44;5.50;;;2.92;;
50225;SDS011;36113;50.742;6.432;2023-08-07T03:15:10;5.30;;;2.67;;
50225;SDS011;36113;50.742;6.432;2023-08-07T03:17:35;10.88;;;2.90;;
50225;SDS011;36113;50.742;6.432;2023-08-07T03:20:00;4.72;;;2.75;;
50225;SDS011;36113;50.742;6.432;2023-08-07T03:22:26;7.03;;;3.38;;
50225;SDS011;36113;50.742;6.432;2023-08-07T03:24:51;3.83;;;2.85;;
50225;SDS011;36113;50.742;6.432;2023-08-07T03:27:16;7.32;;;2.50;;
50225;SDS011;36113;50.742;6.432;2023-08-07T03:29:42;7.25;;;2.83;;
50225;SDS011;36113;50.742;6.432;2023-08-07T03:32:08;5.03;;;2.55;;
50225;SDS011;36113;50.742;6.432;2023-08-07T03:34:33;6.32;;;2.53;;
50225;SDS011;36113;50.742;6.432;2023-08-07T03:36:59;3.95;;;2.30;;
50225;SDS011;36113;50.742;6.432;2023-08-07T03:39:24;5.20;;;2.33;;
50225;SDS011;36113;50.742;6.432;2023-08-07T03:41:50;6.00;;;2.72;;
50225;SDS011;36113;50.742;6.432;2023-08-07T03:44:15;7.17;;;2.30;;
50225;SDS011;36113;50.742;6.432;2023-08-07T03:46:41;7.63;;;2.80;;
50225;SDS011;36113;50.742;6.432;2023-08-07T03:49:06;7.95;;;3.25;;
50225;SDS011;36113;50.742;6.432;2023-08-07T03:51:31;8.10;;;3.38;;
50225;SDS011;36113;50.742;6.432;2023-08-07T03:53:57;6.63;;;3.28;;
50225;SDS011;36113;50.742;6.432;2023-08-07T03:56:22;5.32;;;2.80;;
50225;SDS011;36113;50.742;6.432;2023-08-07T03:58:48;5.85;;;3.22;;
50225;SDS011;36113;50.742;6.432;2023-08-07T04:01:15;3.50;;;3.20;;
50225;SDS011;36113;50.742;6.432;2023-08-07T04:03:40;6.57;;;2.85;;
50225;SDS011;36113;50.742;6.432;2023-08-07T04:06:05;15.05;;;3.92;;
50225;SDS011;36113;50.742;6.432;2023-08-07T04:08:31;12.40;;;3.88;;
50225;SDS011;36113;50.742;6.432;2023-08-07T04:13:25;7.03;;;3.15;;
50225;SDS011;36113;50.742;6.432;2023-08-07T04:15:50;9.80;;;3.40;;
50225;SDS011;36113;50.742;6.432;2023-08-07T04:18:15;16.17;;;3.40;;
50225;SDS011;36113;50.742;6.432;2023-08-07T04:20:41;7.95;;;2.72;;
50225;SDS011;36113;50.742;6.432;2023-08-07T04:23:07;8.73;;;3.58;;
50225;SDS011;36113;50.742;6.432;2023-08-07T04:25:32;5.50;;;3.17;;
50225;SDS011;36113;50.742;6.432;2023-08-07T04:27:57;8.30;;;3.08;;
50225;SDS011;36113;50.742;6.432;2023-08-07T04:30:23;6.28;;;3.05;;
50225;SDS011;36113;50.742;6.432;2023-08-07T04:32:48;9.45;;;3.33;;
50225;SDS011;36113;50.742;6.432;2023-08-07T04:35:14;9.15;;;3.17;;
50225;SDS011;36113;50.742;6.432;2023-08-07T04:37:39;6.97;;;3.10;;
50225;SDS011;36113;50.742;6.432;2023-08-07T04:40:05;10.98;;;3.17;;
50225;SDS011;36113;50.742;6.432;2023-08-07T04:42:30;7.15;;;2.97;;
50225;SDS011;36113;50.742;6.432;2023-08-07T04:44:56;6.60;;;2.63;;
50225;SDS011;36113;50.742;6.432;2023-08-07T04:47:22;9.90;;;3.10;;
50225;SDS011;36113;50.742;6.432;2023-08-07T04:49:47;7.07;;;2.80;;
50225;SDS011;36113;50.742;6.432;2023-08-07T04:52:12;10.40;;;3.55;;
50225;SDS011;36113;50.742;6.432;2023-08-07T04:54:38;9.18;;;2.88;;
50225;SDS011;36113;50.742;6.432;2023-08-07T04:57:03;5.47;;;2.88;;
50225;SDS011;36113;50.742;6.432;2023-08-07T04:59:28;7.93;;;3.08;;
50225;SDS011;36113;50.742;6.432;2023-08-07T05:01:55;4.38;;;2.78;;
50225;SDS011;36113;50.742;6.432;2023-08-07T05:04:21;8.88;;;2.60;;
50225;SDS011;36113;50.742;6.432;2023-08-07T05:06:46;12.05;;;3.63;;
50225;SDS011;36113;50.742;6.432;2023-08-07T05:09:11;9.93;;;2.80;;
50225;SDS011;36113;50.742;6.432;2023-08-07T05:11:37;10.25;;;3.05;;
50225;SDS011;36113;50.742;6.432;2023-08-07T05:14:02;5.55;;;2.42;;
50225;SDS011;36113;50.742;6.432;2023-08-07T05:16:28;9.73;;;3.00;;
50225;SDS011;36113;50.742;6.432;2023-08-07T05:18:53;7.05;;;2.45;;
50225;SDS011;36113;50.742;6.432;2023-08-07T05:21:19;6.00;;;2.42;;
50225;SDS011;36113;50.742;6.432;2023-08-07T05:23:44;2.88;;;2.00;;
50225;SDS011;36113;50.742;6.432;2023-08-07T05:26:09;8.93;;;3.50;;
50225;SDS011;36113;50.742;6.432;2023-08-07T05:28:35;11.75;;;2.97;;
50225;SDS011;36113;50.742;6.432;2023-08-07T05:31:01;8.45;;;2.65;;
50225;SDS011;36113;50.742;6.432;2023-08-07T05:33:26;5.60;;;2.55;;
50225;SDS011;36113;50.742;6.432;2023-08-07T05:35:51;10.30;;;2.67;;
50225;SDS011;36113;50.742;6.432;2023-08-07T05:38:17;7.97;;;2.17;;
50225;SDS011;36113;50.742;6.432;2023-08-07T05:40:43;11.10;;;2.53;;
50225;SDS011;36113;50.742;6.432;2023-08-07T05:43:08;6.40;;;2.50;;
50225;SDS011;36113;50.742;6.432;2023-08-07T05:45:33;6.40;;;2.38;;
50225;SDS011;36113;50.742;6.432;2023-08-07T05:47:59;3.90;;;2.35;;
50225;SDS011;36113;50.742;6.432;2023-08-07T05:50:24;7.25;;;2.72;;
50225;SDS011;36113;50.742;6.432;2023-08-07T05:52:49;8.07;;;2.38;;
50225;SDS011;36113;50.742;6.432;2023-08-07T05:55:14;5.20;;;2.25;;
50225;SDS011;36113;50.742;6.432;2023-08-07T05:57:40;9.73;;;2.97;;
50225;SDS011;36113;50.742;6.432;2023-08-07T06:00:05;10.70;;;2.72;;
50225;SDS011;36113;50.742;6.432;2023-08-07T06:02:32;5.55;;;2.50;;
50225;SDS011;36113;50.742;6.432;2023-08-07T06:04:58;7.18;;;2.60;;
50225;SDS011;36113;50.742;6.432;2023-08-07T06:07:23;7.82;;;2.83;;
50225;SDS011;36113;50.742;6.432;2023-08-07T06:09:48;16.98;;;2.60;;
50225;SDS011;36113;50.742;6.432;2023-08-07T06:12:14;7.47;;;3.00;;
50225;SDS011;36113;50.742;6.432;2023-08-07T06:14:39;6.80;;;2.42;;
50225;SDS011;36113;50.742;6.432;2023-08-07T06:17:04;8.55;;;2.50;;
50225;SDS011;36113;50.742;6.432;2023-08-07T06:19:30;4.70;;;2.27;;
50225;SDS011;36113;50.742;6.432;2023-08-07T06:21:55;6.65;;;2.35;;
50225;SDS011;36113;50.742;6.432;2023-08-07T06:24:21;9.90;;;2.65;;
50225;SDS011;36113;50.742;6.432;2023-08-07T06:26:46;6.20;;;2.40;;
50225;SDS011;36113;50.742;6.432;2023-08-07T06:29:12;3.60;;;2.33;;
50225;SDS011;36113;50.742;6.432;2023-08-07T06:31:37;5.93;;;2.60;;
50225;SDS011;36113;50.742;6.432;2023-08-07T06:34:02;2.78;;;2.55;;
50225;SDS011;36113;50.742;6.432;2023-08-07T06:36:28;6.72;;;2.40;;
50225;SDS011;36113;50.742;6.432;2023-08-07T06:38:53;3.17;;;2.15;;
50225;SDS011;36113;50.742;6.432;2023-08-07T06:41:19;3.70;;;2.05;;
50225;SDS011;36113;50.742;6.432;2023-08-07T06:43:44;5.57;;;2.42;;
50225;SDS011;36113;50.742;6.432;2023-08-07T06:46:09;7.20;;;2.53;;
50225;SDS011;36113;50.742;6.432;2023-08-07T06:48:36;4.65;;;2.30;;
50225;SDS011;36113;50.742;6.432;2023-08-07T06:51:01;5.22;;;2.00;;
50225;SDS011;36113;50.742;6.432;2023-08-07T06:53:27;5.25;;;2.60;;
50225;SDS011;36113;50.742;6.432;2023-08-07T06:55:52;6.47;;;3.00;;
50225;SDS011;36113;50.742;6.432;2023-08-07T06:58:18;5.80;;;2.83;;
50225;SDS011;36113;50.742;6.432;2023-08-07T07:00:43;7.13;;;2.25;;
50225;SDS011;36113;50.742;6.432;2023-08-07T07:03:08;12.18;;;2.78;;
50225;SDS011;36113;50.742;6.432;2023-08-07T07:05:35;6.27;;;2.40;;
50225;SDS011;36113;50.742;6.432;2023-08-07T07:08:00;4.75;;;2.60;;
50225;SDS011;36113;50.742;6.432;2023-08-07T07:10:25;6.75;;;2.65;;
50225;SDS011;36113;50.742;6.432;2023-08-07T07:12:51;7.82;;;2.70;;
50225;SDS011;36113;50.742;6.432;2023-08-07T07:15:17;6.73;;;2.77;;
50225;SDS011;36113;50.742;6.432;2023-08-07T07:17:42;5.28;;;2.88;;
50225;SDS011;36113;50.742;6.432;2023-08-07T07:20:07;7.63;;;2.72;;
50225;SDS011;36113;50.742;6.432;2023-08-07T07:22:34;7.22;;;3.08;;
50225;SDS011;36113;50.742;6.432;2023-08-07T07:24:59;8.57;;;2.95;;
50225;SDS011;36113;50.742;6.432;2023-08-07T07:27:25;7.78;;;3.50;;
50225;SDS011;36113;50.742;6.432;2023-08-07T07:29:51;7.93;;;3.20;;
50225;SDS011;36113;50.742;6.432;2023-08-07T07:32:16;6.82;;;2.70;;
50225;SDS011;36113;50.742;6.432;2023-08-07T07:34:41;5.65;;;2.83;;
50225;SDS011;36113;50.742;6.432;2023-08-07T07:37:07;5.18;;;3.10;;
50225;SDS011;36113;50.742;6.432;2023-08-07T07:39:34;11.82;;;3.08;;
50225;SDS011;36113;50.742;6.432;2023-08-07T07:44:25;9.73;;;3.13;;
50225;SDS011;36113;50.742;6.432;2023-08-07T07:46:50;5.38;;;2.83;;
50225;SDS011;36113;50.742;6.432;2023-08-07T07:49:15;4.60;;;2.80;;
50225;SDS011;36113;50.742;6.432;2023-08-07T07:51:41;7.57;;;3.15;;
50225;SDS011;36113;50.742;6.432;2023-08-07T07:54:09;8.50;;;2.90;;
50225;SDS011;36113;50.742;6.432;2023-08-07T07:56:34;6.18;;;2.83;;
50225;SDS011;36113;50.742;6.432;2023-08-07T07:59:00;7.78;;;3.13;;
50225;SDS011;36113;50.742;6.432;2023-08-07T08:01:25;6.65;;;2.78;;
50225;SDS011;36113;50.742;6.432;2023-08-07T08:03:50;4.85;;;2.70;;
50225;SDS011;36113;50.742;6.432;2023-08-07T08:06:16;9.80;;;3.80;;
50225;SDS011;36113;50.742;6.432;2023-08-07T08:08:41;11.57;;;3.10;;
50225;SDS011;36113;50.742;6.432;2023-08-07T08:11:07;6.70;;;3.38;;
50225;SDS011;36113;50.742;6.432;2023-08-07T08:13:33;5.68;;;3.00;;
50225;SDS011;36113;50.742;6.432;2023-08-07T08:15:58;8.90;;;3.25;;
50225;SDS011;36113;50.742;6.432;2023-08-07T08:18:24;6.95;;;3.22;;
50225;SDS011;36113;50.742;6.432;2023-08-07T08:20:49;5.55;;;3.10;;
50225;SDS011;36113;50.742;6.432;2023-08-07T08:23:14;7.57;;;3.33;;
50225;SDS011;36113;50.742;6.432;2023-08-07T08:25:40;3.38;;;2.70;;
50225;SDS011;36113;50.742;6.432;2023-08-07T08:28:05;11.68;;;2.97;;
50225;SDS011;36113;50.742;6.432;2023-08-07T08:30:30;8.52;;;3.38;;
50225;SDS011;36113;50.742;6.432;2023-08-07T08:32:56;9.68;;;2.85;;
50225;SDS011;36113;50.742;6.432;2023-08-07T08:35:21;4.72;;;2.20;;
50225;SDS011;36113;50.742;6.432;2023-08-07T08:37:46;7.05;;;2.80;;
50225;SDS011;36113;50.742;6.432;2023-08-07T08:40:12;10.25;;;3.05;;
50225;SDS011;36113;50.742;6.432;2023-08-07T08:42:41;5.28;;;3.08;;
50225;SDS011;36113;50.742;6.432;2023-08-07T08:45:09;6.72;;;2.65;;
50225;SDS011;36113;50.742;6.432;2023-08-07T08:47:37;7.05;;;2.85;;
50225;SDS011;36113;50.742;6.432;2023-08-07T08:50:07;6.80;;;3.05;;
50225;SDS011;36113;50.742;6.432;2023-08-07T08:52:35;5.20;;;2.67;;
50225;SDS011;36113;50.742;6.432;2023-08-07T08:55:02;7.28;;;2.97;;
50225;SDS011;36113;50.742;6.432;2023-08-07T08:57:28;9.23;;;2.35;;
50225;SDS011;36113;50.742;6.432;2023-08-07T08:59:55;3.30;;;2.42;;
50225;SDS011;36113;50.742;6.432;2023-08-07T09:02:22;5.18;;;2.45;;
50225;SDS011;36113;50.742;6.432;2023-08-07T09:04:47;7.18;;;2.60;;
50225;SDS011;36113;50.742;6.432;2023-08-07T09:07:13;9.02;;;2.67;;
50225;SDS011;36113;50.742;6.432;2023-08-07T09:09:40;7.85;;;2.83;;
50225;SDS011;36113;50.742;6.432;2023-08-07T09:14:33;5.65;;;3.05;;
50225;SDS011;36113;50.742;6.432;2023-08-07T09:17:02;5.47;;;2.75;;
50225;SDS011;36113;50.742;6.432;2023-08-07T09:19:28;4.43;;;2.35;;
50225;SDS011;36113;50.742;6.432;2023-08-07T09:21:53;6.10;;;2.83;;
50225;SDS011;36113;50.742;6.432;2023-08-07T09:24:19;8.17;;;2.53;;
50225;SDS011;36113;50.742;6.432;2023-08-07T09:26:46;5.30;;;2.80;;
50225;SDS011;36113;50.742;6.432;2023-08-07T09:29:12;7.40;;;2.70;;
50225;SDS011;36113;50.742;6.432;2023-08-07T09:31:38;7.60;;;3.07;;
50225;SDS011;36113;50.742;6.432;2023-08-07T09:34:03;3.40;;;2.50;;
50225;SDS011;36113;50.742;6.432;2023-08-07T09:36:33;4.43;;;2.65;;
50225;SDS011;36113;50.742;6.432;2023-08-07T09:39:02;5.68;;;2.50;;
50225;SDS011;36113;50.742;6.432;2023-08-07T09:41:31;9.50;;;2.58;;
50225;SDS011;36113;50.742;6.432;2023-08-07T09:43:57;4.72;;;2.28;;
50225;SDS011;36113;50.742;6.432;2023-08-07T09:46:23;3.73;;;2.37;;
50225;SDS011;36113;50.742;6.432;2023-08-07T09:48:50;5.85;;;2.50;;
50225;SDS011;36113;50.742;6.432;2023-08-07T09:51:16;6.17;;;2.73;;
50225;SDS011;36113;50.742;6.432;2023-08-07T09:53:41;3.57;;;2.20;;
50225;SDS011;36113;50.742;6.432;2023-08-07T09:56:06;7.27;;;2.47;;
50225;SDS011;36113;50.742;6.432;2023-08-07T09:58:32;4.03;;;1.90;;
50225;SDS011;36113;50.742;6.432;2023-08-07T10:00:59;6.17;;;2.47;;
50225;SDS011;36113;50.742;6.432;2023-08-07T10:03:25;6.63;;;2.50;;
50225;SDS011;36113;50.742;6.432;2023-08-07T10:05:51;3.70;;;2.43;;
50225;SDS011;36113;50.742;6.432;2023-08-07T10:08:17;5.80;;;2.23;;
50225;SDS011;36113;50.742;6.432;2023-08-07T10:10:43;5.38;;;2.53;;
50225;SDS011;36113;50.742;6.432;2023-08-07T10:13:09;6.77;;;2.60;;
50225;SDS011;36113;50.742;6.432;2023-08-07T10:15:38;5.57;;;2.45;;
50225;SDS011;36113;50.742;6.432;2023-08-07T10:18:05;5.78;;;2.40;;
50225;SDS011;36113;50.742;6.432;2023-08-07T10:20:30;6.70;;;2.40;;
50225;SDS011;36113;50.742;6.432;2023-08-07T10:23:00;3.63;;;2.10;;
50225;SDS011;36113;50.742;6.432;2023-08-07T10:25:32;5.68;;;2.40;;
50225;SDS011;36113;50.742;6.432;2023-08-07T10:30:25;7.40;;;2.65;;
50225;SDS011;36113;50.742;6.432;2023-08-07T10:32:51;3.83;;;2.35;;
50225;SDS011;36113;50.742;6.432;2023-08-07T10:35:24;3.22;;;2.00;;
50225;SDS011;36113;50.742;6.432;2023-08-07T10:38:04;4.82;;;2.30;;
50225;SDS011;36113;50.742;6.432;2023-08-07T10:40:32;3.67;;;1.90;;
50225;SDS011;36113;50.742;6.432;2023-08-07T10:42:58;5.67;;;2.13;;
50225;SDS011;36113;50.742;6.432;2023-08-07T10:45:26;4.32;;;2.25;;
50225;SDS011;36113;50.742;6.432;2023-08-07T10:50:27;7.18;;;1.95;;
50225;SDS011;36113;50.742;6.432;2023-08-07T10:52:54;4.68;;;2.30;;
50225;SDS011;36113;50.742;6.432;2023-08-07T10:55:19;4.40;;;2.30;;
50225;SDS011;36113;50.742;6.432;2023-08-07T10:57:46;8.83;;;2.33;;
50225;SDS011;36113;50.742;6.432;2023-08-07T11:00:12;3.92;;;2.15;;
50225;SDS011;36113;50.742;6.432;2023-08-07T11:02:37;5.47;;;2.53;;
50225;SDS011;36113;50.742;6.432;2023-08-07T11:05:06;4.82;;;2.20;;
50225;SDS011;36113;50.742;6.432;2023-08-07T11:07:32;6.37;;;2.33;;
50225;SDS011;36113;50.742;6.432;2023-08-07T11:09:57;5.13;;;2.53;;
50225;SDS011;36113;50.742;6.432;2023-08-07T11:12:26;5.53;;;2.33;;
50225;SDS011;36113;50.742;6.432;2023-08-07T11:14:53;4.53;;;2.13;;
50225;SDS011;36113;50.742;6.432;2023-08-07T11:17:23;2.47;;;2.00;;
50225;SDS011;36113;50.742;6.432;2023-08-07T11:19:49;3.53;;;2.30;;
50225;SDS011;36113;50.742;6.432;2023-08-07T11:22:15;9.70;;;2.50;;
50225;SDS011;36113;50.742;6.432;2023-08-07T11:24:41;5.38;;;2.40;;
50225;SDS011;36113;50.742;6.432;2023-08-07T11:27:07;6.63;;;2.20;;
50225;SDS011;36113;50.742;6.432;2023-08-07T11:29:33;3.58;;;2.30;;
50225;SDS011;36113;50.742;6.432;2023-08-07T11:31:58;8.47;;;2.37;;
50225;SDS011;36113;50.742;6.432;2023-08-07T11:34:24;3.43;;;1.93;;
50225;SDS011;36113;50.742;6.432;2023-08-07T11:36:50;7.97;;;2.47;;
50225;SDS011;36113;50.742;6.432;2023-08-07T11:39:15;10.07;;;2.50;;
50225;SDS011;36113;50.742;6.432;2023-08-07T11:41:42;6.03;;;2.88;;
50225;SDS011;36113;50.742;6.432;2023-08-07T11:44:08;6.37;;;2.53;;
50225;SDS011;36113;50.742;6.432;2023-08-07T11:46:33;5.77;;;2.47;;
50225;SDS011;36113;50.742;6.432;2023-08-07T11:48:59;4.30;;;2.40;;
50225;SDS011;36113;50.742;6.432;2023-08-07T11:51:24;3.67;;;2.57;;
50225;SDS011;36113;50.742;6.432;2023-08-07T11:53:50;3.10;;;1.63;;
50225;SDS011;36113;50.742;6.432;2023-08-07T11:56:16;5.10;;;2.33;;
50225;SDS011;36113;50.742;6.432;2023-08-07T11:58:43;3.25;;;1.98;;
50225;SDS011;36113;50.742;6.432;2023-08-07T12:01:17;6.40;;;2.33;;
50225;SDS011;36113;50.742;6.432;2023-08-07T12:03:57;3.35;;;2.00;;
50225;SDS011;36113;50.742;6.432;2023-08-07T12:06:34;8.02;;;2.50;;
50225;SDS011;36113;50.742;6.432;2023-08-07T12:09:08;5.80;;;2.28;;
50225;SDS011;36113;50.742;6.432;2023-08-07T12:11:37;2.97;;;2.13;;
50225;SDS011;36113;50.742;6.432;2023-08-07T12:14:03;3.50;;;2.20;;
50225;SDS011;36113;50.742;6.432;2023-08-07T12:16:32;6.07;;;2.43;;
50225;SDS011;36113;50.742;6.432;2023-08-07T12:18:58;3.70;;;2.13;;
50225;SDS011;36113;50.742;6.432;2023-08-07T12:21:23;7.33;;;2.30;;
50225;SDS011;36113;50.742;6.432;2023-08-07T12:23:49;4.50;;;2.27;;
50225;SDS011;36113;50.742;6.432;2023-08-07T12:26:16;3.72;;;1.98;;
50225;SDS011;36113;50.742;6.432;2023-08-07T12:28:42;2.07;;;1.87;;
50225;SDS011;36113;50.742;6.432;2023-08-07T12:31:07;4.50;;;2.37;;
50225;SDS011;36113;50.742;6.432;2023-08-07T12:33:33;6.67;;;2.40;;
50225;SDS011;36113;50.742;6.432;2023-08-07T12:35:59;7.97;;;2.17;;
50225;SDS011;36113;50.742;6.432;2023-08-07T12:38:25;3.53;;;1.98;;
50225;SDS011;36113;50.742;6.432;2023-08-07T12:40:51;3.33;;;2.00;;
50225;SDS011;36113;50.742;6.432;2023-08-07T12:43:16;4.20;;;2.27;;
50225;SDS011;36113;50.742;6.432;2023-08-07T12:45:42;2.33;;;1.90;;
50225;SDS011;36113;50.742;6.432;2023-08-07T12:48:07;4.33;;;2.40;;
50225;SDS011;36113;50.742;6.432;2023-08-07T12:50:33;5.07;;;1.80;;
50225;SDS011;36113;50.742;6.432;2023-08-07T12:52:58;3.43;;;1.90;;
50225;SDS011;36113;50.742;6.432;2023-08-07T12:55:24;3.13;;;1.73;;
50225;SDS011;36113;50.742;6.432;2023-08-07T12:57:50;5.00;;;2.20;;
50225;SDS011;36113;50.742;6.432;2023-08-07T13:00:15;7.67;;;2.40;;
50225;SDS011;36113;50.742;6.432;2023-08-07T13:02:41;4.07;;;2.22;;
50225;SDS011;36113;50.742;6.432;2023-08-07T13:05:07;3.13;;;1.97;;
50225;SDS011;36113;50.742;6.432;2023-08-07T13:07:37;6.35;;;1.70;;
50225;SDS011;36113;50.742;6.432;2023-08-07T13:10:06;9.43;;;2.43;;
50225;SDS011;36113;50.742;6.432;2023-08-07T13:12:36;4.38;;;2.25;;
50225;SDS011;36113;50.742;6.432;2023-08-07T13:15:03;4.45;;;2.20;;
50225;SDS011;36113;50.742;6.432;2023-08-07T13:17:29;3.22;;;1.90;;
50225;SDS011;36113;50.742;6.432;2023-08-07T13:19:55;3.63;;;1.87;;
50225;SDS011;36113;50.742;6.432;2023-08-07T13:22:20;3.40;;;1.83;;
50225;SDS011;36113;50.742;6.432;2023-08-07T13:24:45;2.00;;;1.90;;
50225;SDS011;36113;50.742;6.432;2023-08-07T13:27:11;4.93;;;2.23;;
50225;SDS011;36113;50.742;6.432;2023-08-07T13:29:36;5.20;;;2.27;;
50225;SDS011;36113;50.742;6.432;2023-08-07T13:32:02;3.77;;;1.90;;
50225;SDS011;36113;50.742;6.432;2023-08-07T13:34:37;2.30;;;1.88;;
50225;SDS011;36113;50.742;6.432;2023-08-07T13:37:03;6.23;;;2.37;;
50225;SDS011;36113;50.742;6.432;2023-08-07T13:39:30;4.72;;;2.00;;
50225;SDS011;36113;50.742;6.432;2023-08-07T13:41:55;5.27;;;1.90;;
50225;SDS011;36113;50.742;6.432;2023-08-07T13:44:21;5.90;;;1.53;;
50225;SDS011;36113;50.742;6.432;2023-08-07T13:46:47;1.98;;;1.55;;
50225;SDS011;36113;50.742;6.432;2023-08-07T13:49:12;1.90;;;1.70;;
50225;SDS011;36113;50.742;6.432;2023-08-07T13:51:38;7.83;;;2.00;;
50225;SDS011;36113;50.742;6.432;2023-08-07T13:54:03;2.57;;;2.07;;
50225;SDS011;36113;50.742;6.432;2023-08-07T13:56:29;2.20;;;1.50;;
50225;SDS011;36113;50.742;6.432;2023-08-07T13:58:54;1.87;;;1.70;;
50225;SDS011;36113;50.742;6.432;2023-08-07T14:01:20;5.73;;;1.53;;
50225;SDS011;36113;50.742;6.432;2023-08-07T14:03:45;3.13;;;1.83;;
50225;SDS011;36113;50.742;6.432;2023-08-07T14:06:11;2.23;;;1.23;;
50225;SDS011;36113;50.742;6.432;2023-08-07T14:08:36;1.97;;;1.83;;
50225;SDS011;36113;50.742;6.432;2023-08-07T14:11:01;2.90;;;1.90;;
50225;SDS011;36113;50.742;6.432;2023-08-07T14:13:27;2.88;;;1.55;;
50225;SDS011;36113;50.742;6.432;2023-08-07T14:15:53;1.73;;;1.60;;
50225;SDS011;36113;50.742;6.432;2023-08-07T14:18:18;2.00;;;1.90;;
50225;SDS011;36113;50.742;6.432;2023-08-07T14:20:43;3.30;;;1.60;;
50225;SDS011;36113;50.742;6.432;2023-08-07T14:23:09;4.63;;;1.80;;
50225;SDS011;36113;50.742;6.432;2023-08-07T14:25:34;1.60;;;1.47;;
50225;SDS011;36113;50.742;6.432;2023-08-07T14:27:59;1.47;;;1.37;;
50225;SDS011;36113;50.742;6.432;2023-08-07T14:30:25;3.17;;;1.80;;
50225;SDS011;36113;50.742;6.432;2023-08-07T14:32:50;2.00;;;1.37;;
50225;SDS011;36113;50.742;6.432;2023-08-07T14:35:15;1.83;;;1.57;;
50225;SDS011;36113;50.742;6.432;2023-08-07T14:37:41;2.13;;;1.40;;
50225;SDS011;36113;50.742;6.432;2023-08-07T14:40:06;7.80;;;1.73;;
50225;SDS011;36113;50.742;6.432;2023-08-07T14:42:32;1.40;;;1.30;;
50225;SDS011;36113;50.742;6.432;2023-08-07T14:44:58;1.67;;;1.57;;
50225;SDS011;36113;50.742;6.432;2023-08-07T14:47:24;2.00;;;1.53;;
50225;SDS011;36113;50.742;6.432;2023-08-07T14:49:50;2.40;;;1.40;;
50225;SDS011;36113;50.742;6.432;2023-08-07T14:52:15;1.88;;;1.58;;
50225;SDS011;36113;50.742;6.432;2023-08-07T14:54:41;2.60;;;1.60;;
50225;SDS011;36113;50.742;6.432;2023-08-07T14:57:06;1.77;;;1.67;;